createdAt,value
2022-07-30T00:02:10.605Z,101002.94
2022-07-30T00:04:38.541Z,100996.63
2022-07-30T00:07:06.208Z,100999.69
2022-07-30T00:09:34.437Z,100999.13
2022-07-30T00:12:04.498Z,100996.31
2022-07-30T00:14:36.437Z,100992.75
2022-07-30T00:17:05.167Z,100991.34
2022-07-30T00:19:33.391Z,100984.69
2022-07-30T00:22:01.031Z,100977.72
2022-07-30T00:24:28.696Z,100975.16
2022-07-30T00:26:56.389Z,100970.47
2022-07-30T00:29:23.999Z,100975.34
2022-07-30T00:31:53.413Z,100975.34
2022-07-30T00:34:20.964Z,100975.66
2022-07-30T00:36:48.588Z,100975.28
2022-07-30T00:39:16.185Z,100970.88
2022-07-30T00:41:58.331Z,100966.78
2022-07-30T00:44:26.196Z,100970.63
2022-07-30T00:46:56.040Z,100977.72
2022-07-30T00:49:24.145Z,100977.97
2022-07-30T00:51:52.282Z,100970.47
2022-07-30T00:54:21.081Z,100970.47
2022-07-30T00:56:49.457Z,100966.56
2022-07-30T00:59:17.186Z,100967.63
2022-07-30T05:03:06.209Z,101140.13
2022-07-30T05:05:34.648Z,101134.91
2022-07-30T05:08:03.497Z,101129.31
2022-07-30T05:10:31.315Z,101118.25
2022-07-30T05:12:58.903Z,101112.66
2022-07-30T05:15:36.221Z,101113.97
2022-07-30T05:18:06.962Z,101118.84
2022-07-30T05:20:34.575Z,101125.41
2022-07-30T05:23:02.154Z,101131.31
2022-07-30T05:25:29.941Z,101123.69
2022-07-30T05:27:58.193Z,101122.28
2022-07-30T05:30:27.512Z,101120.38
2022-07-30T05:32:56.061Z,101113.94
2022-07-30T05:35:25.187Z,101118.34
2022-07-30T05:37:52.717Z,101101.91
2022-07-30T05:40:20.530Z,101100.59
2022-07-30T05:42:49.076Z,101099.72
2022-07-30T05:45:17.227Z,101101.28
2022-07-30T05:47:44.941Z,101101.53
2022-07-30T05:50:13.486Z,101099.28
2022-07-30T05:52:42.640Z,101095.44
2022-07-30T05:55:10.981Z,101095.69
2022-07-30T05:57:41.973Z,101090.31
2022-07-30T06:00:11.506Z,101092.81
2022-07-30T06:02:40.685Z,101092.81
2022-07-30T06:05:09.277Z,101083.03
2022-07-30T06:07:36.875Z,101083.88
2022-07-30T06:10:06.833Z,101071.59
2022-07-30T06:12:34.480Z,101078.88
2022-07-30T06:15:02.047Z,101074.31
2022-07-30T06:17:29.952Z,101070.72
2022-07-30T06:20:00.312Z,101079.56
2022-07-30T06:22:28.047Z,101068.97
2022-07-30T06:24:55.671Z,101068.56
2022-07-30T06:27:25.905Z,101078.50
2022-07-30T06:29:53.564Z,101078.75
2022-07-30T06:32:21.190Z,101078.94
2022-07-30T06:34:53.323Z,101070.00
2022-07-30T06:38:06.414Z,101076.50
2022-07-30T06:40:13.668Z,101079.97
2022-07-30T06:42:42.582Z,101086.72
2022-07-30T06:45:11.461Z,101086.78
2022-07-30T06:47:39.040Z,101092.72
2022-07-30T06:50:08.027Z,101091.72
2022-07-30T06:52:36.911Z,101094.53
2022-07-30T06:55:05.362Z,101086.31
2022-07-30T06:57:35.470Z,101081.72
2022-07-30T07:00:08.465Z,101093.53
2022-07-30T07:02:36.048Z,101089.88
2022-07-30T07:05:03.884Z,101091.28
2022-07-30T07:07:41.382Z,101095.31
2022-07-30T07:10:11.473Z,101088.06
2022-07-30T07:12:39.182Z,101097.81
2022-07-30T07:15:09.732Z,101087.00
2022-07-30T07:17:37.369Z,101089.94
2022-07-30T07:20:06.381Z,101093.44
2022-07-30T07:22:33.990Z,101101.09
2022-07-30T07:25:01.587Z,101097.34
2022-07-30T07:27:29.196Z,101093.75
2022-07-30T07:30:01.759Z,101098.22
2022-07-30T07:32:35.168Z,101090.19
2022-07-30T07:35:03.331Z,101087.66
2022-07-30T07:37:31.065Z,101089.31
2022-07-30T07:39:58.642Z,101090.41
2022-07-30T07:42:26.213Z,101092.41
2022-07-30T07:44:53.775Z,101086.56
2022-07-30T07:47:21.353Z,101078.78
2022-07-30T07:49:50.270Z,101085.16
2022-07-30T07:52:17.838Z,101086.81
2022-07-30T07:54:45.527Z,101082.53
2022-07-30T07:57:14.718Z,101076.53
2022-07-30T07:59:43.065Z,101078.09
2022-07-30T08:02:10.771Z,101067.72
2022-07-30T08:04:38.496Z,101069.56
2022-07-30T08:07:07.720Z,101067.13
2022-07-30T08:09:40.766Z,101063.94
2022-07-30T08:12:13.114Z,101064.75
2022-07-30T08:14:40.919Z,101063.34
2022-07-30T08:17:09.127Z,101055.69
2022-07-30T08:19:37.129Z,101057.09
2022-07-30T08:22:05.282Z,101048.91
2022-07-30T08:24:34.489Z,101052.03
2022-07-30T08:27:02.341Z,101045.50
2022-07-30T08:29:30.771Z,101055.97
2022-07-30T08:31:58.635Z,101056.09
2022-07-30T08:34:26.424Z,101058.56
2022-07-30T08:36:54.027Z,101055.00
2022-07-30T08:39:21.573Z,101058.84
2022-07-30T08:41:50.509Z,101054.19
2022-07-30T08:44:21.679Z,101059.28
2022-07-30T08:46:51.353Z,101066.84
2022-07-30T08:49:19.983Z,101061.66
2022-07-30T08:51:47.662Z,101060.38
2022-07-30T08:54:15.388Z,101064.88
2022-07-30T08:56:43.546Z,101063.25
2022-07-30T08:59:12.887Z,101065.31
2022-07-30T09:01:40.528Z,101067.50
2022-07-30T09:04:08.250Z,101069.94
2022-07-30T09:06:37.186Z,101069.91
2022-07-30T09:09:04.892Z,101075.66
2022-07-30T09:11:34.891Z,101076.72
2022-07-30T09:14:09.428Z,101083.09
2022-07-30T09:16:39.260Z,101086.72
2022-07-30T09:19:14.832Z,101084.78
2022-07-30T09:21:43.852Z,101087.94
2022-07-30T09:24:13.278Z,101086.81
2022-07-30T09:26:55.859Z,101087.34
2022-07-30T09:29:26.044Z,101091.78
2022-07-30T09:31:57.324Z,101098.13
2022-07-30T09:34:29.869Z,101099.81
2022-07-30T09:36:58.480Z,101097.69
2022-07-30T09:39:30.906Z,101106.31
2022-07-30T09:41:59.421Z,101106.38
2022-07-30T09:44:29.662Z,101104.19
2022-07-30T09:46:59.583Z,101102.34
2022-07-30T09:49:28.791Z,101109.47
2022-07-30T09:51:57.875Z,101105.66
2022-07-30T09:54:26.566Z,101113.16
2022-07-30T09:57:23.206Z,101105.69
2022-07-30T09:59:56.651Z,101106.53
2022-07-30T10:02:32.697Z,101104.94
2022-07-30T10:05:14.443Z,101107.78
2022-07-30T10:07:50.998Z,101093.69
2022-07-30T10:10:25.663Z,101095.38
2022-07-30T10:12:58.887Z,101102.34
2022-07-30T10:15:30.678Z,101098.47
2022-07-30T10:18:02.842Z,101101.81
2022-07-30T10:20:35.148Z,101098.47
2022-07-30T10:23:07.639Z,101098.44
2022-07-30T10:25:37.011Z,101097.34
2022-07-30T10:28:18.157Z,101099.53
2022-07-30T10:30:46.120Z,101099.25
2022-07-30T10:33:36.395Z,101099.25
2022-07-30T10:36:08.796Z,101093.47
2022-07-30T10:38:41.612Z,101101.22
2022-07-30T10:41:42.196Z,101103.13
2022-07-30T10:44:19.600Z,101101.22
2022-07-30T10:46:56.781Z,101100.94
2022-07-30T10:49:27.377Z,101095.69
2022-07-30T10:52:02.546Z,101090.97
2022-07-30T10:54:41.641Z,101094.28
2022-07-30T10:57:15.124Z,101087.91
2022-07-30T11:00:11.981Z,101096.75
2022-07-30T11:02:40.095Z,101089.59
2022-07-30T11:05:45.282Z,101090.69
2022-07-30T11:08:36.261Z,101091.81
2022-07-30T11:12:01.127Z,101095.38
2022-07-30T11:15:07.122Z,101097.59
2022-07-30T11:18:00.990Z,101092.97
2022-07-30T11:20:31.765Z,101093.50
2022-07-30T11:23:14.261Z,101088.56
2022-07-30T11:25:50.178Z,101093.81
2022-07-30T11:28:37.356Z,101094.63
2022-07-30T11:31:36.935Z,101095.25
2022-07-30T11:34:27.048Z,101091.56
2022-07-30T11:37:18.584Z,101090.53
2022-07-30T11:40:10.844Z,101096.34
2022-07-30T11:42:41.363Z,101091.69
2022-07-30T11:45:32.949Z,101088.69
2022-07-30T11:48:02.540Z,101082.59
2022-07-30T11:50:33.204Z,101087.03
2022-07-30T11:53:04.091Z,101082.31
2022-07-30T11:55:34.421Z,101087.28
2022-07-30T11:58:05.774Z,101092.28
2022-07-30T12:00:36.445Z,101087.00
2022-07-30T12:03:12.364Z,101083.44
2022-07-30T12:05:40.998Z,101086.19
2022-07-30T12:08:33.378Z,101089.22
2022-07-30T12:10:59.822Z,101091.41
2022-07-30T12:13:45.021Z,101096.41
2022-07-30T12:16:15.838Z,101087.00
2022-07-30T12:18:44.250Z,101087.53
2022-07-30T12:21:13.547Z,101088.59
2022-07-30T12:23:43.905Z,101086.91
2022-07-30T12:26:22.288Z,101081.88
2022-07-30T12:28:50.417Z,101082.44
2022-07-30T12:31:18.652Z,101081.88
2022-07-30T12:33:47.411Z,101079.09
2022-07-30T12:36:25.865Z,101077.38
2022-07-30T12:38:56.566Z,101071.75
2022-07-30T12:41:24.913Z,101075.28
2022-07-30T12:43:54.294Z,101078.22
2022-07-30T12:46:24.544Z,101071.47
2022-07-30T12:48:54.364Z,101067.72
2022-07-30T12:51:24.377Z,101057.56
2022-07-30T12:53:53.571Z,101063.28
2022-07-30T12:56:24.700Z,101060.53
2022-07-30T12:58:52.590Z,101063.50
2022-07-30T13:01:20.539Z,101050.25
2022-07-30T13:03:48.237Z,101051.72
2022-07-30T13:06:17.986Z,101046.28
2022-07-30T13:08:47.902Z,101053.06
2022-07-30T13:11:16.316Z,101048.22
2022-07-30T13:13:45.885Z,101049.28
2022-07-30T13:16:14.165Z,101047.19
2022-07-30T13:18:41.955Z,101050.72
2022-07-30T13:21:10.255Z,101043.50
2022-07-30T13:23:38.872Z,101043.78
2022-07-30T13:26:08.122Z,101047.25
2022-07-30T13:28:36.330Z,101045.88
2022-07-30T13:31:05.405Z,101046.97
2022-07-30T13:33:32.970Z,101037.03
2022-07-30T13:36:00.635Z,101040.75
2022-07-30T13:38:29.410Z,101044.81
2022-07-30T13:41:02.251Z,101047.75
2022-07-30T13:43:33.609Z,101037.78
2022-07-30T13:46:02.849Z,101034.00
2022-07-30T13:48:31.871Z,101039.16
2022-07-30T13:51:01.129Z,101036.59
2022-07-30T13:53:29.375Z,101027.88
2022-07-30T13:55:59.286Z,101032.91
2022-07-30T13:58:27.696Z,101034.84
2022-07-30T14:00:55.369Z,101034.56
2022-07-30T14:03:23.077Z,101030.97
2022-07-30T14:05:52.770Z,101026.22
2022-07-30T14:08:20.337Z,101029.06
2022-07-30T14:10:47.923Z,101030.63
2022-07-30T14:13:18.990Z,101023.69
2022-07-30T14:15:49.425Z,101021.47
2022-07-30T14:18:17.412Z,101018.63
2022-07-30T14:20:48.561Z,101021.00
2022-07-30T14:23:18.141Z,101020.53
2022-07-30T14:25:45.959Z,101020.50
2022-07-30T14:28:14.045Z,101023.53
2022-07-30T14:30:41.684Z,101030.38
2022-07-30T14:33:09.408Z,101026.16
2022-07-30T14:35:37.289Z,101029.44
2022-07-30T14:38:05.819Z,101025.47
2022-07-30T14:40:34.986Z,101021.78
2022-07-30T14:43:02.549Z,101025.19
2022-07-30T14:45:30.117Z,101027.28
2022-07-30T14:47:57.731Z,101028.63
2022-07-30T14:50:25.369Z,101026.97
2022-07-30T14:52:53.083Z,101028.75
2022-07-30T14:55:20.798Z,101030.44
2022-07-30T14:57:49.766Z,101029.16
2022-07-30T15:00:17.887Z,101029.63
2022-07-30T15:02:45.515Z,101031.56
2022-07-30T15:05:13.118Z,101037.66
2022-07-30T15:07:40.761Z,101038.03
2022-07-30T15:10:09.686Z,101037.94
2022-07-30T15:12:37.542Z,101039.69
2022-07-30T15:15:08.926Z,101042.09
2022-07-30T15:17:38.654Z,101035.25
2022-07-30T15:20:08.873Z,101036.09
2022-07-30T15:22:36.740Z,101040.84
2022-07-30T15:25:04.824Z,101044.84
2022-07-30T15:27:34.176Z,101040.09
2022-07-30T15:30:02.415Z,101041.50
2022-07-30T15:32:31.651Z,101036.78
2022-07-30T15:34:59.545Z,101031.28
2022-07-30T15:37:27.148Z,101033.00
2022-07-30T15:39:54.722Z,101033.00
2022-07-30T15:42:22.596Z,101041.63
2022-07-30T15:45:14.278Z,101037.59
2022-07-30T15:47:39.126Z,101034.63
2022-07-30T15:50:07.814Z,101033.78
2022-07-30T15:52:36.726Z,101039.31
2022-07-30T15:55:05.140Z,101020.94
2022-07-30T15:57:32.838Z,101025.75
2022-07-30T16:00:00.549Z,101028.75
2022-07-30T16:02:28.247Z,101019.31
2022-07-30T16:04:57.150Z,101019.31
2022-07-30T16:07:25.426Z,101022.69
2022-07-30T16:09:55.289Z,101019.75
2022-07-30T16:12:23.603Z,101022.22
2022-07-30T16:14:51.202Z,101019.56
2022-07-30T16:17:18.829Z,101022.06
2022-07-30T16:19:46.422Z,101025.66
2022-07-30T16:22:21.596Z,101019.25
2022-07-30T16:24:52.045Z,101018.38
2022-07-30T16:27:20.097Z,101022.22
2022-07-30T16:29:47.678Z,101021.75
2022-07-30T16:32:15.294Z,101016.25
2022-07-30T16:34:42.913Z,101012.91
2022-07-30T16:37:10.585Z,101015.38
2022-07-30T16:39:39.496Z,101021.16
2022-07-30T16:42:07.283Z,101019.75
2022-07-30T16:44:35.312Z,101020.41
2022-07-30T16:47:03.996Z,101026.28
2022-07-30T16:49:31.661Z,101020.75
2022-07-30T16:51:59.354Z,101018.28
2022-07-30T16:54:27.098Z,101030.75
2022-07-30T16:56:56.017Z,101027.44
2022-07-30T16:59:23.621Z,101031.09
2022-07-30T17:01:51.421Z,101023.16
2022-07-30T17:04:19.115Z,101029.00
2022-07-30T17:06:47.072Z,101027.06
2022-07-30T17:09:15.980Z,101031.47
2022-07-30T17:11:47.027Z,101031.19
2022-07-30T17:14:22.091Z,101033.75
2022-07-30T17:16:50.172Z,101032.69
2022-07-30T17:19:17.803Z,101034.34
2022-07-30T17:21:45.528Z,101037.69
2022-07-30T17:24:13.729Z,101031.34
2022-07-30T17:26:43.837Z,101044.63
2022-07-30T17:29:14.661Z,101045.47
2022-07-30T17:31:45.383Z,101049.31
2022-07-30T17:34:15.428Z,101050.44
2022-07-30T17:36:51.635Z,101049.88
2022-07-30T17:40:19.878Z,101047.09
2022-07-30T17:42:08.511Z,101047.97
2022-07-30T17:44:36.566Z,101056.03
2022-07-30T17:47:05.604Z,101051.69
2022-07-30T17:49:33.407Z,101051.94
2022-07-30T17:52:02.885Z,101047.81
2022-07-30T17:54:31.001Z,101051.72
2022-07-30T17:56:58.666Z,101047.81
2022-07-30T17:59:26.351Z,101051.72
2022-07-30T18:01:54.130Z,101050.59
2022-07-30T18:04:23.168Z,101049.47
2022-07-30T18:06:51.028Z,101049.16
2022-07-30T18:09:18.696Z,101042.84
2022-07-30T18:11:46.373Z,101044.25
2022-07-30T18:14:14.017Z,101051.75
2022-07-30T18:16:41.844Z,101057.56
2022-07-30T18:19:09.495Z,101048.97
2022-07-30T18:21:56.193Z,101058.38
2022-07-30T18:24:25.160Z,101065.03
2022-07-30T18:26:53.667Z,101067.84
2022-07-30T18:29:21.274Z,101060.91
2022-07-30T18:31:48.917Z,101061.78
2022-07-30T18:34:17.010Z,101069.28
2022-07-30T18:36:44.623Z,101072.63
2022-07-30T18:39:13.534Z,101074.09
2022-07-30T18:41:41.169Z,101080.50
2022-07-30T18:44:09.016Z,101076.63
2022-07-30T18:46:36.656Z,101076.97
2022-07-30T18:49:21.254Z,101084.19
2022-07-30T18:51:51.985Z,101083.66
2022-07-30T18:54:21.176Z,101085.31
2022-07-30T18:56:48.766Z,101084.19
2022-07-30T18:59:16.378Z,101091.16
2022-07-30T19:01:44.056Z,101106.63
2022-07-30T19:04:11.761Z,101113.00
2022-07-30T19:06:39.408Z,101120.19
2022-07-30T19:09:10.145Z,101122.94
2022-07-30T19:11:47.034Z,101129.28
2022-07-30T19:14:15.316Z,101131.22
2022-07-30T19:16:43.507Z,101141.19
2022-07-30T19:19:13.575Z,101146.66
2022-07-30T19:21:41.559Z,101146.09
2022-07-30T19:24:10.104Z,101158.75
2022-07-30T19:26:39.526Z,101167.19
2022-07-30T19:29:09.650Z,101166.81
2022-07-30T19:31:37.431Z,101164.97
2022-07-30T19:34:06.983Z,101178.50
2022-07-30T19:36:34.702Z,101177.09
2022-07-30T19:39:06.801Z,101177.19
2022-07-30T19:41:40.352Z,101171.84
2022-07-30T19:44:11.243Z,101183.47
2022-07-30T19:46:39.216Z,101176.69
2022-07-30T19:49:10.138Z,101180.34
2022-07-30T19:52:22.274Z,101172.13
2022-07-30T19:54:26.206Z,101170.22
2022-07-30T19:56:53.778Z,101159.19
2022-07-30T19:59:25.300Z,101161.38
2022-07-30T20:02:10.493Z,101159.13
2022-07-30T20:04:41.289Z,101163.53
2022-07-30T20:07:11.378Z,101148.88
2022-07-30T20:09:42.936Z,101145.03
2022-07-30T20:12:14.406Z,101146.13
2022-07-30T20:14:43.748Z,101145.28
2022-07-30T20:17:11.502Z,101151.94
2022-07-30T20:19:40.656Z,101149.44
2022-07-30T20:22:15.765Z,101144.75
2022-07-30T20:24:43.430Z,101151.69
2022-07-30T20:27:37.252Z,101148.94
2022-07-30T20:30:00.918Z,101165.22
2022-07-30T20:32:29.276Z,101170.81
2022-07-30T20:34:57.215Z,101170.31
2022-07-30T20:37:27.377Z,101182.50
2022-07-30T20:39:55.825Z,101180.28
2022-07-30T20:42:24.179Z,101185.81
2022-07-30T20:44:54.340Z,101185.56
2022-07-30T20:47:34.389Z,101182.72
2022-07-30T20:50:06.084Z,101188.53
2022-07-30T20:52:37.602Z,101188.34
2022-07-30T20:55:08.471Z,101193.06
2022-07-30T21:00:25.297Z,101183.94
2022-07-30T21:02:54.293Z,101192.22
2022-07-30T21:05:22.170Z,101189.16
2022-07-30T21:07:52.812Z,101197.06
2022-07-30T21:10:21.646Z,101196.78
2022-07-30T21:12:53.279Z,101194.81
2022-07-30T21:15:32.566Z,101197.81
2022-07-30T21:18:02.093Z,101199.50
2022-07-30T21:20:31.661Z,101204.47
2022-07-30T21:23:05.034Z,101203.38
2022-07-30T21:25:33.525Z,101207.22
2022-07-30T21:28:03.117Z,101203.66
2022-07-30T21:30:32.163Z,101205.53
2022-07-30T21:33:02.779Z,101203.03
2022-07-30T21:35:31.951Z,101207.72
2022-07-30T21:38:00.123Z,101210.75
2022-07-30T21:40:28.684Z,101205.47
2022-07-30T21:42:57.447Z,101202.34
2022-07-30T21:45:27.674Z,101198.16
2022-07-30T21:48:09.301Z,101195.38
2022-07-30T21:50:39.853Z,101200.28
2022-07-30T21:53:07.888Z,101206.66
2022-07-30T21:55:52.983Z,101195.03
2022-07-30T21:58:25.896Z,101195.91
2022-07-30T22:01:16.322Z,101192.56
2022-07-30T22:04:02.058Z,101198.59
2022-07-30T22:06:35.537Z,101198.28
2022-07-30T22:09:09.955Z,101197.72
2022-07-30T22:11:49.394Z,101202.91
2022-07-30T22:14:18.160Z,101196.28
2022-07-30T22:16:47.017Z,101205.03
2022-07-30T22:22:26.076Z,101211.88
2022-07-30T22:24:52.282Z,101210.25
2022-07-30T22:27:19.932Z,101212.75
2022-07-30T22:29:49.635Z,101214.91
2022-07-30T22:32:17.749Z,101219.25
2022-07-30T22:34:47.271Z,101219.78
2022-07-30T22:37:18.439Z,101228.03
2022-07-30T22:39:50.864Z,101215.06
2022-07-30T22:42:24.332Z,101213.72
2022-07-30T22:44:52.743Z,101213.19
2022-07-30T22:47:51.317Z,101212.06
2022-07-30T22:50:11.616Z,101203.63
2022-07-30T22:52:56.716Z,101203.38
2022-07-30T22:55:30.848Z,101208.09
2022-07-30T22:57:59.176Z,101204.00
2022-07-30T23:00:28.586Z,101205.41
2022-07-30T23:02:57.228Z,101198.50
2022-07-30T23:05:26.303Z,101194.91
2022-07-30T23:07:54.482Z,101193.78
2022-07-30T23:10:22.971Z,101194.53
2022-07-30T23:12:31.389Z,101196.75
2022-07-30T23:12:32.484Z,101193.06
2022-07-30T23:12:53.562Z,101196.72
2022-07-30T23:15:21.967Z,101194.59
2022-07-30T23:17:49.630Z,101190.91
2022-07-30T23:20:21.133Z,101187.38
2022-07-30T23:22:50.316Z,101193.44
2022-07-30T23:25:18.473Z,101182.31
2022-07-30T23:27:46.800Z,101183.16
2022-07-30T23:30:14.953Z,101178.75
2022-07-30T23:32:42.972Z,101176.56
2022-07-30T23:35:11.313Z,101172.41
2022-07-30T23:37:48.021Z,101168.94
2022-07-30T23:40:19.229Z,101163.50
2022-07-30T23:42:47.044Z,101166.38
2022-07-30T23:45:14.780Z,101174.97
2022-07-30T23:47:56.595Z,101169.75
2022-07-30T23:50:30.319Z,101168.41
2022-07-30T23:52:58.096Z,101167.91
2022-07-30T23:55:27.791Z,101174.75
2022-07-30T23:57:55.826Z,101174.22
